Date,TemperatureHighF,TemperatureAvgF,TemperatureLowF,DewpointHighF,DewpointAvgF,DewpointLowF,HumidityHigh,HumidityAvg,HumidityLow,PressureMaxIn,PressureMinIn,WindSpeedMaxMPH,WindSpeedAvgMPH,GustSpeedMaxMPH,PrecipitationSumIn
2013-8-1,95,83,69,40,31,18,23,16,10,29.77,29.65,7,3,17,0.00
2013-8-2,93,81,65,44,33,21,26,18,12,29.74,29.67,8,3,17,0.00
2013-8-3,94,82,67,46,32,14,28,17,10,29.79,29.70,7,3,17,0.00
2013-8-4,95,84,68,43,36,23,26,19,12,29.79,29.70,7,4,17,0.00
2013-8-5,94,83,66,45,34,17,29,18,11,29.79,29.69,9,4,20,0.00
2013-8-6,91,82,69,44,37,28,35,21,12,29.81,29.72,10,5,25,0.00
2013-8-7,92,80,65,42,34,28,26,20,14,29.83,29.75,7,2,17,0.00
2013-8-8,90,79,65,42,35,27,26,21,17,29.78,29.70,8,4,20,0.00
2013-8-9,91,78,64,40,33,22,26,20,14,29.75,29.69,6,3,19,0.00
2013-8-10,90,77,63,42,34,19,29,21,16,29.82,29.74,6,3,15,0.00
2013-8-11,91,78,64,45,39,34,33,25,17,29.82,29.71,6,3,15,0.00
2013-8-12,94,81,66,44,40,34,31,23,16,29.79,29.70,6,3,16,0.00
2013-8-13,95,83,68,46,40,34,29,22,16,29.80,29.71,6,3,14,0.00
2013-8-14,98,86,72,49,44,37,32,24,17,29.78,29.67,5,2,13,0.00
2013-8-15,97,87,74,54,47,36,32,26,20,29.77,29.68,7,3,17,0.00
2013-8-16,99,88,73,57,53,49,43,31,24,29.77,29.67,6,3,15,0.00
2013-8-17,99,88,76,59,52,46,37,30,23,29.76,29.60,8,3,18,0.00
2013-8-18,97,87,79,60,56,51,47,35,29,29.75,29.62,9,3,20,0.00
2013-8-19,95,83,71,60,57,53,59,43,28,29.79,29.68,6,2,15,0.00
2013-8-20,98,86,74,57,52,45,51,33,17,29.74,29.63,8,4,19,0.00
2013-8-21,98,88,75,52,48,42,34,26,20,29.74,29.65,6,3,15,0.00
2013-8-22,97,86,76,63,53,46,56,33,23,29.75,29.63,9,3,20,0.00
2013-8-23,92,82,70,61,58,46,65,45,29,29.70,29.58,9,3,18,0.00
2013-8-24,86,78,70,69,61,45,72,57,29,29.75,29.64,9,4,19,0.03
2013-8-25,83,73,65,66,62,57,78,68,55,29.84,29.74,9,4,22,0.00
2013-8-26,73,69,66,68,64,59,94,86,70,29.88,29.80,4,1,9,0.20
2013-8-27,90,76,63,67,63,59,90,67,36,29.82,29.68,4,1,16,0.00
2013-8-28,94,82,69,63,61,58,72,50,34,29.76,29.67,6,2,14,0.00
2013-8-29,86,77,70,71,67,58,87,73,47,29.91,29.76,7,2,21,0.35
2013-8-30,85,77,71,69,67,65,89,74,56,29.92,29.81,6,3,13,0.00
2013-8-31,89,79,73,67,65,59,77,62,44,29.85,29.72,8,2,20,0.00